createdAt,value
2018-05-14T00:02:23.704Z,13.50
2018-05-14T00:04:51.182Z,13.40
2018-05-14T00:07:18.755Z,13.30
2018-05-14T00:09:46.158Z,13.40
2018-05-14T00:12:14.404Z,13.30
2018-05-14T00:14:41.871Z,13.30
2018-05-14T00:17:09.344Z,13.20
2018-05-14T00:19:36.848Z,13.20
2018-05-14T00:22:04.320Z,13.20
2018-05-14T00:24:31.803Z,13.20
2018-05-14T00:26:59.272Z,13.10
2018-05-14T00:29:26.747Z,13.10
2018-05-14T00:31:54.242Z,13.10
2018-05-14T00:34:21.720Z,13.10
2018-05-14T00:36:49.973Z,13.10
2018-05-14T00:39:17.452Z,13.10
2018-05-14T00:41:44.930Z,13.10
2018-05-14T00:44:13.184Z,13.00
2018-05-14T00:46:40.675Z,13.10
2018-05-14T00:49:08.920Z,13.00
2018-05-14T00:51:36.398Z,13.00
2018-05-14T00:54:03.874Z,13.00
2018-05-14T00:56:32.128Z,13.00
2018-05-14T00:58:59.604Z,13.00
2018-05-14T01:01:27.102Z,12.90
2018-05-14T01:03:55.345Z,12.90
2018-05-14T01:06:22.819Z,12.90
2018-05-14T01:08:50.306Z,12.90
2018-05-14T01:11:18.545Z,12.90
2018-05-14T01:13:46.029Z,12.90
2018-05-14T01:16:13.497Z,12.90
2018-05-14T01:18:40.969Z,12.90
2018-05-14T01:21:09.209Z,12.90
2018-05-14T01:23:36.681Z,12.80
2018-05-14T01:26:04.175Z,12.90
2018-05-14T01:28:31.649Z,12.90
2018-05-14T01:30:59.891Z,12.80
2018-05-14T01:33:28.136Z,12.80
2018-05-14T01:35:55.606Z,12.80
2018-05-14T01:38:23.097Z,12.80
2018-05-14T01:40:50.580Z,12.80
2018-05-14T01:43:18.060Z,12.80
2018-05-14T01:45:46.297Z,12.80
2018-05-14T01:48:13.761Z,12.80
2018-05-14T01:50:41.258Z,12.80
2018-05-14T01:53:08.718Z,12.80
2018-05-14T01:55:36.194Z,12.80
2018-05-14T01:58:04.428Z,12.70
2018-05-14T02:00:31.966Z,12.70
2018-05-14T02:02:59.458Z,12.70
2018-05-14T02:05:26.952Z,12.80
2018-05-14T02:07:54.427Z,12.70
2018-05-14T02:10:22.670Z,12.70
2018-05-14T02:12:50.133Z,12.70
2018-05-14T02:15:17.620Z,12.70
2018-05-14T02:17:45.098Z,12.70
2018-05-14T02:20:12.572Z,12.70
2018-05-14T02:22:40.804Z,12.70
2018-05-14T02:25:08.288Z,12.70
2018-05-14T02:27:35.778Z,12.70
2018-05-14T02:30:04.025Z,12.70
2018-05-14T02:32:31.501Z,12.70
2018-05-14T02:34:58.970Z,12.80
2018-05-14T02:37:26.441Z,12.70
2018-05-14T02:39:53.928Z,12.70
2018-05-14T02:42:21.386Z,12.70
2018-05-14T02:44:49.634Z,12.70
2018-05-14T02:47:17.109Z,12.70
2018-05-14T02:49:44.568Z,12.70
2018-05-14T02:52:12.057Z,12.70
2018-05-14T02:54:40.293Z,12.70
2018-05-14T02:57:08.536Z,12.70
2018-05-14T02:59:36.002Z,12.70
2018-05-14T03:02:03.464Z,12.70
2018-05-14T03:04:30.956Z,12.70
2018-05-14T03:06:58.422Z,12.70
2018-05-14T03:09:25.911Z,12.70
2018-05-14T03:11:53.376Z,12.70
2018-05-14T03:14:20.848Z,12.60
2018-05-14T03:16:48.345Z,12.70
2018-05-14T03:19:15.808Z,12.60
2018-05-14T03:21:43.274Z,12.60
2018-05-14T03:24:10.760Z,12.60
2018-05-14T03:26:38.226Z,12.60
2018-05-14T03:29:05.726Z,12.60
2018-05-14T03:31:33.203Z,12.60
2018-05-14T03:34:00.671Z,12.70
2018-05-14T03:36:28.908Z,12.60
2018-05-14T03:38:56.385Z,12.60
2018-05-14T03:41:23.876Z,12.60
2018-05-14T03:43:52.113Z,12.60
2018-05-14T03:46:19.585Z,12.60
2018-05-14T03:48:47.062Z,12.60
2018-05-14T03:51:14.526Z,12.60
2018-05-14T03:53:42.016Z,12.60
2018-05-14T03:56:10.241Z,12.60
2018-05-14T03:58:49.576Z,12.60
2018-05-14T04:01:17.054Z,12.60
2018-05-14T04:03:56.423Z,12.60
2018-05-14T04:06:29.746Z,12.60
2018-05-14T04:08:57.238Z,12.60
2018-05-14T04:11:24.716Z,12.60
2018-05-14T04:13:52.189Z,12.60
2018-05-14T04:16:19.664Z,12.60
2018-05-14T04:18:47.137Z,12.60
2018-05-14T04:21:14.616Z,12.60
2018-05-14T04:23:42.847Z,12.60
2018-05-14T04:26:10.328Z,12.60
2018-05-14T04:28:37.804Z,12.60
2018-05-14T04:31:05.261Z,12.60
2018-05-14T04:33:32.747Z,12.60
2018-05-14T04:36:00.983Z,12.70
2018-05-14T04:38:28.441Z,12.60
2018-05-14T04:40:55.910Z,12.70
2018-05-14T04:43:23.407Z,12.70
2018-05-14T04:45:50.905Z,12.70
2018-05-14T04:48:18.361Z,12.80
2018-05-14T04:50:45.833Z,12.80
2018-05-14T04:53:13.303Z,12.80
2018-05-14T04:55:40.783Z,12.80
2018-05-14T04:58:08.276Z,12.90
2018-05-14T05:00:35.746Z,12.90
2018-05-14T05:03:03.216Z,12.80
2018-05-14T05:05:30.700Z,12.90
2018-05-14T05:07:58.934Z,12.90
2018-05-14T05:10:26.545Z,12.80
2018-05-14T05:12:54.684Z,12.90
2018-05-14T05:15:22.158Z,12.90
2018-05-14T05:17:49.627Z,12.90
2018-05-14T05:20:17.098Z,13.00
2018-05-14T05:22:44.622Z,13.00
2018-05-14T05:25:12.077Z,13.00
2018-05-14T05:27:39.551Z,13.00
2018-05-14T05:30:07.014Z,13.00
2018-05-14T05:32:34.488Z,13.10
2018-05-14T05:35:02.768Z,13.20
2018-05-14T05:37:30.227Z,13.20
2018-05-14T05:39:57.709Z,13.30
2018-05-14T05:42:25.167Z,13.30
2018-05-14T05:44:52.648Z,13.40
2018-05-14T05:47:20.131Z,13.40
2018-05-14T05:49:48.360Z,13.50
2018-05-14T05:52:15.834Z,13.50
2018-05-14T05:54:43.313Z,13.60
2018-05-14T05:57:10.784Z,13.60
2018-05-14T05:59:38.265Z,13.60
2018-05-14T06:02:06.502Z,13.50
2018-05-14T06:04:33.971Z,13.50
2018-05-14T06:07:01.444Z,13.50
2018-05-14T06:09:29.004Z,13.60
2018-05-14T06:11:56.418Z,13.50
2018-05-14T06:14:23.896Z,13.60
2018-05-14T06:16:51.361Z,13.60
2018-05-14T06:19:18.838Z,13.60
2018-05-14T06:21:46.311Z,13.60
2018-05-14T06:24:14.568Z,13.70
2018-05-14T06:26:42.041Z,13.70
2018-05-14T06:29:09.518Z,13.80
2018-05-14T06:31:37.006Z,13.90
2018-05-14T06:34:04.474Z,14.00
2018-05-14T06:36:31.972Z,14.10
2018-05-14T06:38:59.448Z,14.20
2018-05-14T06:41:26.912Z,14.30
2018-05-14T06:46:28.355Z,14.40
2018-05-14T06:48:55.988Z,14.30
2018-05-14T06:51:23.463Z,14.30
2018-05-14T06:53:50.930Z,14.40
2018-05-14T06:56:18.402Z,14.60
2018-05-14T06:58:45.874Z,14.80
2018-05-14T07:01:13.372Z,15.00
2018-05-14T07:03:40.844Z,15.00
2018-05-14T07:06:08.321Z,15.10
2018-05-14T07:08:35.797Z,15.10
2018-05-14T07:11:03.268Z,15.10
2018-05-14T07:13:30.760Z,15.10
2018-05-14T07:15:58.222Z,15.00
2018-05-14T07:18:25.704Z,15.00
2018-05-14T07:20:53.938Z,14.90
2018-05-14T07:23:22.162Z,14.90
2018-05-14T07:25:50.420Z,14.90
2018-05-14T07:28:17.898Z,14.90
2018-05-14T07:30:46.134Z,14.90
2018-05-14T07:33:13.593Z,14.90
2018-05-14T07:35:41.071Z,15.10
2018-05-14T07:38:08.550Z,15.30
2018-05-14T07:40:36.026Z,15.50
2018-05-14T07:43:03.488Z,15.60
2018-05-14T07:45:30.968Z,15.70
2018-05-14T07:47:59.210Z,16.00
2018-05-14T07:50:26.689Z,16.00
2018-05-14T07:52:54.146Z,16.10
2018-05-14T07:55:21.614Z,16.00
2018-05-14T07:57:49.069Z,15.90
2018-05-14T08:00:16.651Z,15.90
2018-05-14T08:02:44.021Z,15.80
2018-05-14T08:05:12.269Z,15.80
2018-05-14T08:07:39.723Z,15.80
2018-05-14T08:10:07.197Z,15.80
2018-05-14T08:12:34.667Z,15.90
2018-05-14T08:15:02.153Z,15.90
2018-05-14T08:17:29.611Z,15.80
2018-05-14T08:19:57.075Z,15.80
2018-05-14T08:22:24.551Z,15.80
2018-05-14T08:24:52.777Z,15.80
2018-05-14T08:27:20.257Z,15.70
2018-05-14T08:29:47.705Z,15.70
2018-05-14T08:32:15.181Z,15.70
2018-05-14T08:34:42.643Z,15.70
2018-05-14T08:37:10.162Z,15.90
2018-05-14T08:39:37.598Z,16.10
2018-05-14T08:42:05.068Z,16.40
2018-05-14T08:44:32.512Z,16.60
2018-05-14T08:46:59.977Z,16.80
2018-05-14T08:49:27.451Z,16.90
2018-05-14T08:51:54.936Z,17.00
2018-05-14T08:54:23.303Z,17.30
2018-05-14T08:56:50.617Z,17.20
2018-05-14T08:59:18.081Z,17.50
2018-05-14T09:01:45.552Z,17.60
2018-05-14T09:04:13.023Z,17.70
2018-05-14T09:06:40.483Z,17.90
2018-05-14T09:09:07.951Z,18.00
2018-05-14T09:11:35.411Z,18.20
2018-05-14T09:14:02.881Z,18.60
2018-05-14T09:16:30.359Z,19.00
2018-05-14T09:18:57.833Z,19.10
2018-05-14T09:21:25.321Z,19.20
2018-05-14T09:23:53.537Z,19.80
2018-05-14T09:26:21.003Z,19.80
2018-05-14T09:28:48.499Z,20.00
2018-05-14T09:31:16.153Z,19.90
2018-05-14T09:33:43.423Z,19.90
2018-05-14T09:36:10.890Z,19.70
2018-05-14T09:38:38.455Z,19.40
2018-05-14T09:41:05.932Z,19.20
2018-05-14T09:43:33.389Z,19.00
2018-05-14T09:46:00.845Z,18.90
2018-05-14T09:48:28.307Z,18.70
2018-05-14T09:50:55.773Z,18.50
2018-05-14T09:53:23.253Z,18.40
2018-05-14T09:55:51.471Z,18.10
2018-05-14T09:58:18.938Z,18.10
2018-05-14T10:00:46.408Z,18.10
2018-05-14T10:03:13.863Z,18.20
2018-05-14T10:05:41.344Z,18.30
2018-05-14T10:08:08.801Z,18.50
2018-05-14T10:10:36.261Z,18.70
2018-05-14T10:13:03.820Z,18.90
2018-05-14T10:15:31.223Z,19.10
2018-05-14T10:17:58.716Z,19.20
2018-05-14T10:20:26.949Z,19.20
2018-05-14T10:22:54.415Z,19.20
2018-05-14T10:25:21.877Z,19.40
2018-05-14T10:27:49.344Z,19.40
2018-05-14T10:30:16.823Z,19.50
2018-05-14T10:32:44.291Z,19.40
2018-05-14T10:35:11.756Z,19.40
2018-05-14T10:37:39.794Z,19.40
2018-05-14T10:40:07.332Z,19.10
2018-05-14T10:42:34.829Z,19.10
2018-05-14T10:45:02.301Z,19.10
2018-05-14T10:47:29.756Z,19.10
2018-05-14T10:49:57.223Z,19.20
2018-05-14T10:52:24.711Z,19.30
2018-05-14T10:54:52.176Z,19.40
2018-05-14T10:57:19.651Z,19.30
2018-05-14T10:59:47.113Z,19.10
2018-05-14T11:02:14.572Z,19.00
2018-05-14T11:04:42.050Z,18.90
2018-05-14T11:07:09.538Z,18.90
2018-05-14T11:09:37.002Z,18.90
2018-05-14T11:12:04.476Z,19.00
2018-05-14T11:14:31.951Z,19.20
2018-05-14T11:16:59.413Z,19.40
2018-05-14T11:19:26.897Z,19.60
2018-05-14T11:21:54.366Z,19.70
2018-05-14T11:24:21.832Z,19.80
2018-05-14T11:26:49.316Z,19.90
2018-05-14T11:29:16.776Z,20.10
2018-05-14T11:31:44.247Z,20.20
2018-05-14T11:34:12.492Z,20.20
2018-05-14T11:36:39.975Z,20.20
2018-05-14T11:39:07.452Z,19.90
2018-05-14T11:41:34.914Z,19.70
2018-05-14T11:44:02.414Z,19.50
2018-05-14T11:46:29.867Z,19.20
2018-05-14T11:48:57.352Z,19.20
2018-05-14T11:51:24.816Z,19.20
2018-05-14T11:53:52.282Z,19.30
2018-05-14T11:56:19.784Z,19.40
2018-05-14T11:58:47.251Z,19.80
2018-05-14T12:01:14.714Z,20.00
2018-05-14T12:03:42.181Z,20.20
2018-05-14T12:06:09.647Z,20.20
2018-05-14T12:08:37.115Z,20.30
2018-05-14T12:11:04.583Z,20.30
2018-05-14T12:13:32.050Z,20.10
2018-05-14T12:15:59.541Z,19.90
2018-05-14T12:18:27.031Z,19.70
2018-05-14T12:20:54.600Z,19.50
2018-05-14T12:23:22.794Z,19.20
2018-05-14T12:25:50.278Z,19.20
2018-05-14T12:28:17.739Z,19.20
2018-05-14T12:30:45.207Z,19.20
2018-05-14T12:33:12.720Z,19.00
2018-05-14T12:35:40.209Z,19.00
2018-05-14T12:38:07.685Z,19.00
2018-05-14T12:40:35.147Z,18.90
2018-05-14T12:43:02.626Z,18.80
2018-05-14T12:45:30.121Z,18.70
2018-05-14T12:47:57.598Z,18.70
2018-05-14T12:50:25.075Z,18.60
2018-05-14T12:52:52.578Z,18.50
2018-05-14T12:55:20.058Z,18.60
2018-05-14T12:57:49.179Z,18.50
2018-05-14T13:00:16.662Z,18.50
2018-05-14T13:02:44.146Z,18.60
2018-05-14T13:05:11.631Z,18.60
2018-05-14T13:07:39.104Z,18.60
2018-05-14T13:10:06.612Z,18.60
2018-05-14T13:12:34.074Z,18.60
2018-05-14T13:15:01.550Z,18.50
2018-05-14T13:17:30.058Z,18.50
2018-05-14T13:19:57.546Z,18.40
2018-05-14T13:22:25.057Z,18.30
2018-05-14T13:24:52.538Z,18.20
2018-05-14T13:27:20.807Z,18.20
2018-05-14T13:29:48.304Z,18.40
2018-05-14T13:32:16.551Z,18.40
2018-05-14T13:34:44.052Z,18.40
2018-05-14T13:37:11.538Z,18.40
2018-05-14T13:39:39.350Z,18.50
2018-05-14T13:42:07.724Z,18.40
2018-05-14T13:44:35.309Z,18.20
2018-05-14T13:47:02.762Z,18.10
2018-05-14T13:49:30.264Z,18.10
2018-05-14T13:51:57.753Z,17.80
2018-05-14T13:54:25.253Z,17.70
2018-05-14T13:56:53.507Z,17.50
2018-05-14T13:59:21.791Z,17.20
2018-05-14T14:01:49.312Z,17.10
2018-05-14T14:04:17.987Z,17.00
2018-05-14T14:06:45.530Z,16.90
2018-05-14T14:09:13.049Z,16.90
2018-05-14T14:11:40.567Z,16.80
2018-05-14T14:14:08.440Z,16.80
2018-05-14T14:16:35.949Z,16.80
2018-05-14T14:19:03.521Z,16.90
2018-05-14T14:21:31.036Z,17.10
2018-05-14T14:23:58.757Z,17.20
2018-05-14T14:26:27.459Z,17.60
2018-05-14T14:28:56.037Z,17.70
2018-05-14T14:31:24.381Z,17.70
2018-05-14T14:33:52.016Z,17.90
2018-05-14T14:36:20.456Z,18.10
2018-05-14T14:38:48.289Z,18.10
2018-05-14T14:41:17.972Z,18.00
2018-05-14T14:43:47.211Z,18.00
2018-05-14T14:46:15.408Z,18.00
2018-05-14T14:48:42.939Z,18.00
2018-05-14T14:51:11.208Z,18.10
2018-05-14T14:53:40.551Z,18.20
2018-05-14T14:56:08.087Z,18.20
2018-05-14T14:58:36.351Z,18.00
2018-05-14T15:01:03.875Z,18.00
2018-05-14T15:03:31.730Z,18.00
2018-05-14T15:05:59.263Z,18.20
2018-05-14T15:08:26.779Z,18.20
2018-05-14T15:10:54.565Z,18.40
2018-05-14T15:13:22.082Z,18.50
2018-05-14T15:15:49.962Z,18.60
2018-05-14T15:18:17.476Z,18.70
2018-05-14T15:20:45.028Z,18.70
2018-05-14T15:23:12.549Z,18.80
2018-05-14T15:25:40.111Z,18.80
2018-05-14T15:28:08.215Z,18.90
2018-05-14T15:30:36.925Z,19.00
2018-05-14T15:33:05.186Z,19.00
2018-05-14T15:35:34.011Z,19.20
2018-05-14T15:38:03.063Z,19.60
2018-05-14T15:40:31.379Z,19.50
2018-05-14T15:43:00.755Z,19.70
2018-05-14T15:45:33.213Z,19.90
2018-05-14T15:48:01.475Z,20.10
2018-05-14T15:50:29.745Z,20.10
2018-05-14T15:52:57.751Z,20.20
2018-05-14T15:55:27.061Z,20.30
2018-05-14T15:57:55.309Z,20.30
2018-05-14T16:00:23.289Z,20.40
2018-05-14T16:02:51.111Z,20.60
2018-05-14T16:05:19.551Z,20.70
2018-05-14T16:07:48.015Z,20.80
2018-05-14T16:10:15.565Z,21.00
2018-05-14T16:12:43.839Z,21.00
2018-05-14T16:15:11.376Z,21.00
2018-05-14T16:17:41.519Z,20.70
2018-05-14T16:20:09.135Z,20.70
2018-05-14T16:22:36.659Z,20.50
2018-05-14T16:25:05.507Z,20.30
2018-05-14T16:27:33.005Z,20.20
2018-05-14T16:30:00.479Z,20.00
2018-05-14T16:32:27.950Z,19.70
2018-05-14T16:34:55.426Z,19.50
2018-05-14T16:37:22.889Z,19.20
2018-05-14T16:39:50.394Z,19.10
2018-05-14T16:42:17.862Z,19.00
2018-05-14T16:44:45.326Z,18.90
2018-05-14T16:47:12.798Z,18.80
2018-05-14T16:49:41.047Z,18.10
2018-05-14T16:52:08.532Z,18.20
2018-05-14T16:54:35.998Z,17.70
2018-05-14T16:57:03.481Z,17.40
2018-05-14T16:59:31.712Z,17.10
2018-05-14T17:01:59.182Z,17.10
2018-05-14T17:04:26.686Z,17.00
2018-05-14T17:06:54.920Z,16.90
2018-05-14T17:09:22.390Z,16.90
2018-05-14T17:11:49.866Z,16.90
2018-05-14T17:14:17.342Z,16.80
2018-05-14T17:16:45.679Z,16.70
2018-05-14T17:19:13.156Z,16.60
2018-05-14T17:21:40.623Z,16.50
2018-05-14T17:24:08.100Z,16.40
2018-05-14T17:26:35.598Z,16.40
2018-05-14T17:29:03.850Z,16.30
2018-05-14T17:31:31.379Z,16.30
2018-05-14T17:33:58.857Z,16.30
2018-05-14T17:36:26.327Z,16.30
2018-05-14T17:38:53.829Z,16.30
2018-05-14T17:41:21.332Z,16.30
2018-05-14T17:43:48.834Z,16.30
2018-05-14T17:46:16.324Z,16.30
2018-05-14T17:48:44.578Z,16.30
2018-05-14T17:51:12.078Z,16.30
2018-05-14T17:53:40.308Z,16.20
2018-05-14T17:56:07.788Z,16.20
2018-05-14T17:58:35.275Z,16.20
2018-05-14T18:01:03.520Z,16.20
2018-05-14T18:03:31.051Z,16.20
2018-05-14T18:05:58.528Z,16.20
2018-05-14T18:08:26.015Z,16.10
2018-05-14T18:10:53.548Z,16.10
2018-05-14T18:13:20.962Z,16.00
2018-05-14T18:15:48.474Z,16.00
2018-05-14T18:18:15.941Z,15.90
2018-05-14T18:20:43.425Z,15.90
2018-05-14T18:23:17.220Z,15.90
2018-05-14T18:25:50.399Z,15.90
2018-05-14T18:28:17.892Z,15.90
2018-05-14T18:30:46.321Z,15.90
2018-05-14T18:33:14.568Z,15.80
2018-05-14T18:35:43.842Z,15.80
2018-05-14T18:38:11.333Z,15.80
2018-05-14T18:40:39.125Z,15.80
2018-05-14T18:43:06.634Z,15.80
2018-05-14T18:45:34.105Z,15.80
2018-05-14T18:48:01.608Z,15.70
2018-05-14T18:50:29.366Z,15.70
2018-05-14T18:52:56.847Z,15.70
2018-05-14T18:55:24.341Z,15.60
2018-05-14T18:57:51.806Z,15.60
2018-05-14T19:00:20.051Z,15.60
2018-05-14T19:02:47.529Z,15.60
2018-05-14T19:05:14.999Z,15.50
2018-05-14T19:07:43.273Z,15.50
2018-05-14T19:10:16.476Z,15.50
2018-05-14T19:12:44.756Z,15.50
2018-05-14T19:15:17.887Z,15.50
2018-05-14T19:17:51.140Z,15.50
2018-05-14T19:20:21.706Z,15.50
2018-05-14T19:22:55.107Z,15.40
2018-05-14T19:25:22.601Z,15.50
2018-05-14T19:27:55.724Z,15.40
2018-05-14T19:30:23.208Z,15.40
2018-05-14T19:32:51.479Z,15.40
2018-05-14T19:35:24.553Z,15.40
2018-05-14T19:37:52.044Z,15.40
2018-05-14T19:40:25.817Z,15.40
2018-05-14T19:42:53.316Z,15.30
2018-05-14T19:45:21.648Z,15.40
2018-05-14T19:47:49.208Z,15.40
2018-05-14T19:50:16.779Z,15.40
2018-05-14T19:52:47.563Z,15.40
2018-05-14T19:55:19.703Z,15.30
2018-05-14T19:57:47.258Z,15.30
2018-05-14T20:00:14.798Z,15.20
2018-05-14T20:02:42.357Z,15.20
2018-05-14T20:05:09.850Z,15.20
2018-05-14T20:07:40.301Z,15.20
2018-05-14T20:10:08.023Z,15.20
2018-05-14T20:12:35.603Z,15.20
2018-05-14T20:15:03.154Z,15.20
2018-05-14T20:17:30.728Z,15.20
2018-05-14T20:19:58.267Z,15.20
2018-05-14T20:22:26.571Z,15.20
2018-05-14T20:24:54.101Z,15.10
2018-05-14T20:27:21.596Z,15.10
2018-05-14T20:29:49.091Z,15.10
2018-05-14T20:32:17.357Z,15.00
2018-05-14T20:34:44.859Z,15.00
2018-05-14T20:37:12.339Z,15.00
2018-05-14T20:39:39.835Z,15.00
2018-05-14T20:42:07.313Z,14.90
2018-05-14T20:44:34.805Z,14.90
2018-05-14T20:47:02.325Z,14.90
2018-05-14T20:49:30.223Z,14.80
2018-05-14T20:51:57.733Z,14.80
2018-05-14T20:54:25.218Z,14.80
2018-05-14T20:56:53.531Z,14.70
2018-05-14T20:59:21.091Z,14.70
2018-05-14T21:01:48.563Z,14.70
2018-05-14T21:04:16.029Z,14.60
2018-05-14T21:06:43.573Z,14.70
2018-05-14T21:09:11.037Z,14.60
2018-05-14T21:11:38.527Z,14.60
2018-05-14T21:14:06.006Z,14.50
2018-05-14T21:16:33.481Z,14.60
2018-05-14T21:19:00.957Z,14.60
2018-05-14T21:21:28.431Z,14.60
2018-05-14T21:23:55.921Z,14.50
2018-05-14T21:26:23.397Z,14.50
2018-05-14T21:28:50.869Z,14.50
2018-05-14T21:31:18.399Z,14.50
2018-05-14T21:33:45.834Z,14.40
2018-05-14T21:36:13.346Z,14.40
2018-05-14T21:38:40.822Z,14.40
2018-05-14T21:41:08.284Z,14.40
2018-05-14T21:43:35.750Z,14.30
2018-05-14T21:46:03.236Z,14.20
2018-05-14T21:48:30.740Z,14.20
2018-05-14T21:50:58.968Z,14.10
2018-05-14T21:53:26.429Z,14.10
2018-05-14T21:55:53.909Z,14.10
2018-05-14T21:58:21.390Z,14.10
2018-05-14T22:00:48.883Z,14.10
2018-05-14T22:03:17.114Z,14.10
2018-05-14T22:05:50.390Z,14.10
2018-05-14T22:08:17.874Z,14.00
2018-05-14T22:10:45.337Z,14.00
2018-05-14T22:13:12.832Z,14.00
2018-05-14T22:15:40.305Z,13.90
2018-05-14T22:18:08.573Z,13.80
2018-05-14T22:20:36.033Z,13.80
2018-05-14T22:23:03.506Z,13.80
2018-05-14T22:25:31.029Z,13.70
2018-05-14T22:27:59.217Z,13.70
2018-05-14T22:30:26.707Z,13.60
2018-05-14T22:32:54.179Z,13.60
2018-05-14T22:35:21.641Z,13.60
2018-05-14T22:37:49.121Z,13.50
2018-05-14T22:40:17.353Z,13.50
2018-05-14T22:42:44.855Z,13.50
2018-05-14T22:45:12.327Z,13.40
2018-05-14T22:47:40.574Z,13.40
2018-05-14T22:50:08.026Z,13.30
2018-05-14T22:52:35.500Z,13.30
2018-05-14T22:55:02.965Z,13.30
2018-05-14T22:57:30.449Z,13.20
2018-05-14T22:59:57.948Z,13.20
2018-05-14T23:02:25.421Z,13.20
2018-05-14T23:04:52.899Z,13.20
2018-05-14T23:07:20.365Z,13.10
2018-05-14T23:09:47.830Z,13.10
2018-05-14T23:12:15.321Z,13.00
2018-05-14T23:14:42.803Z,13.00
2018-05-14T23:17:11.046Z,12.90
2018-05-14T23:19:38.527Z,12.80
2018-05-14T23:22:05.986Z,12.80
2018-05-14T23:24:33.480Z,12.80
2018-05-14T23:27:01.727Z,12.70
2018-05-14T23:29:29.205Z,12.70
2018-05-14T23:31:56.684Z,12.60
2018-05-14T23:34:24.156Z,12.60
2018-05-14T23:36:52.422Z,12.60
2018-05-14T23:39:19.907Z,12.50
2018-05-14T23:41:48.136Z,12.50
2018-05-14T23:44:15.617Z,12.50
2018-05-14T23:46:43.081Z,12.50
2018-05-14T23:49:10.648Z,12.50
2018-05-14T23:51:38.825Z,12.40
2018-05-14T23:54:06.300Z,12.40
2018-05-14T23:56:33.770Z,12.30
2018-05-14T23:59:01.246Z,12.30
